ROMY(METAR)
05/24 14:00
METAR ROMY 240500Z 08012KT 9999 FEW035 27/17 Q1014 RMK 1CU035 A2996=
戻る
トップページへ戻る
IMOC Co,.Ltd.